sensor_id;sensor_type;location;lat;lon;timestamp;pressure;altitude;pressure_sealevel;temperature;humidity
9187;BME280;7273;48.902;9.410;2023-03-26T00:01:17;97549.00;;;8.17;68.89
9187;BME280;7273;48.902;9.410;2023-03-26T00:03:45;97551.19;;;8.15;68.72
9187;BME280;7273;48.902;9.410;2023-03-26T00:06:15;97538.53;;;8.15;68.37
9187;BME280;7273;48.902;9.410;2023-03-26T00:08:42;97540.66;;;8.13;68.09
9187;BME280;7273;48.902;9.410;2023-03-26T00:11:12;97536.66;;;8.11;68.14
9187;BME280;7273;48.902;9.410;2023-03-26T00:13:38;97546.88;;;8.09;67.94
9187;BME280;7273;48.902;9.410;2023-03-26T00:16:05;97536.69;;;7.96;68.17
9187;BME280;7273;48.902;9.410;2023-03-26T00:18:30;97540.47;;;8.00;68.50
9187;BME280;7273;48.902;9.410;2023-03-26T00:21:04;97539.09;;;7.97;67.60
9187;BME280;7273;48.902;9.410;2023-03-26T00:23:30;97546.63;;;7.95;68.29
9187;BME280;7273;48.902;9.410;2023-03-26T00:25:57;97537.78;;;7.95;67.80
9187;BME280;7273;48.902;9.410;2023-03-26T00:28:23;97541.00;;;7.92;67.96
9187;BME280;7273;48.902;9.410;2023-03-26T00:30:49;97539.66;;;7.84;68.01
9187;BME280;7273;48.902;9.410;2023-03-26T00:33:20;97539.94;;;7.83;68.15
9187;BME280;7273;48.902;9.410;2023-03-26T00:35:51;97543.16;;;7.85;68.38
9187;BME280;7273;48.902;9.410;2023-03-26T00:38:16;97550.16;;;7.81;68.26
9187;BME280;7273;48.902;9.410;2023-03-26T00:40:41;97555.53;;;7.81;68.46
9187;BME280;7273;48.902;9.410;2023-03-26T00:43:11;97548.81;;;7.83;68.27
9187;BME280;7273;48.902;9.410;2023-03-26T00:45:46;97547.19;;;7.82;71.53
9187;BME280;7273;48.902;9.410;2023-03-26T00:48:13;97543.44;;;7.83;68.87
9187;BME280;7273;48.902;9.410;2023-03-26T00:50:39;97533.22;;;7.85;68.29
9187;BME280;7273;48.902;9.410;2023-03-26T00:53:06;97532.94;;;7.87;68.42
9187;BME280;7273;48.902;9.410;2023-03-26T00:55:33;97524.31;;;7.90;68.11
9187;BME280;7273;48.902;9.410;2023-03-26T00:57:58;97523.78;;;7.93;67.52
9187;BME280;7273;48.902;9.410;2023-03-26T01:00:33;97510.31;;;7.93;67.16
9187;BME280;7273;48.902;9.410;2023-03-26T01:03:00;97518.09;;;7.94;67.73
9187;BME280;7273;48.902;9.410;2023-03-26T01:08:03;97507.91;;;7.86;67.13
9187;BME280;7273;48.902;9.410;2023-03-26T01:10:28;97504.41;;;7.86;67.61
9187;BME280;7273;48.902;9.410;2023-03-26T01:13:02;97502.78;;;7.85;67.68
9187;BME280;7273;48.902;9.410;2023-03-26T01:15:28;97495.00;;;7.83;67.28
9187;BME280;7273;48.902;9.410;2023-03-26T01:17:54;97490.19;;;7.70;67.72
9187;BME280;7273;48.902;9.410;2023-03-26T01:20:24;97487.22;;;7.72;67.61
9187;BME280;7273;48.902;9.410;2023-03-26T01:22:58;97485.63;;;7.71;67.26
9187;BME280;7273;48.902;9.410;2023-03-26T01:25:27;97481.03;;;7.66;67.59
9187;BME280;7273;48.902;9.410;2023-03-26T01:27:55;97472.41;;;7.69;68.08
9187;BME280;7273;48.902;9.410;2023-03-26T01:30:34;97478.88;;;7.68;67.62
9187;BME280;7273;48.902;9.410;2023-03-26T01:36:27;97473.78;;;7.62;67.86
9187;BME280;7273;48.902;9.410;2023-03-26T01:38:39;97461.13;;;7.57;68.17
9187;BME280;7273;48.902;9.410;2023-03-26T01:41:41;97454.13;;;7.61;68.08
9187;BME280;7273;48.902;9.410;2023-03-26T01:44:26;97457.63;;;7.62;67.78
9187;BME280;7273;48.902;9.410;2023-03-26T01:46:55;97449.56;;;7.62;68.28
9187;BME280;7273;48.902;9.410;2023-03-26T01:49:21;97446.88;;;7.62;68.16
9187;BME280;7273;48.902;9.410;2023-03-26T01:51:46;97443.91;;;7.63;67.88
9187;BME280;7273;48.902;9.410;2023-03-26T01:54:15;97436.63;;;7.64;67.93
9187;BME280;7273;48.902;9.410;2023-03-26T01:57:01;97441.22;;;7.63;68.31
9187;BME280;7273;48.902;9.410;2023-03-26T01:59:53;97436.63;;;7.64;69.01
9187;BME280;7273;48.902;9.410;2023-03-26T02:05:45;97424.50;;;7.66;68.79
9187;BME280;7273;48.902;9.410;2023-03-26T02:08:40;97416.16;;;7.68;68.61
9187;BME280;7273;48.902;9.410;2023-03-26T02:11:12;97418.59;;;7.64;68.17
9187;BME280;7273;48.902;9.410;2023-03-26T02:13:40;97397.88;;;7.65;68.27
9187;BME280;7273;48.902;9.410;2023-03-26T02:16:08;97396.81;;;7.71;68.14
9187;BME280;7273;48.902;9.410;2023-03-26T02:18:35;97387.09;;;7.70;68.44
9187;BME280;7273;48.902;9.410;2023-03-26T02:21:09;97392.75;;;7.73;68.09
9187;BME280;7273;48.902;9.410;2023-03-26T02:23:37;97379.81;;;7.75;68.20
9187;BME280;7273;48.902;9.410;2023-03-26T02:26:06;97377.91;;;7.76;68.08
9187;BME280;7273;48.902;9.410;2023-03-26T02:28:32;97369.63;;;7.72;68.44
9187;BME280;7273;48.902;9.410;2023-03-26T02:30:58;97365.03;;;7.73;67.61
9187;BME280;7273;48.902;9.410;2023-03-26T02:33:29;97358.31;;;7.75;67.80
9187;BME280;7273;48.902;9.410;2023-03-26T02:35:56;97365.56;;;7.75;67.93
9187;BME280;7273;48.902;9.410;2023-03-26T02:38:24;97352.66;;;7.72;68.03
9187;BME280;7273;48.902;9.410;2023-03-26T02:40:51;97357.75;;;7.73;67.56
9187;BME280;7273;48.902;9.410;2023-03-26T02:43:17;97353.75;;;7.71;67.78
9187;BME280;7273;48.902;9.410;2023-03-26T02:45:42;97348.31;;;7.76;68.49
9187;BME280;7273;48.902;9.410;2023-03-26T02:48:08;97338.09;;;7.78;67.61
9187;BME280;7273;48.902;9.410;2023-03-26T02:50:33;97345.59;;;7.81;67.89
9187;BME280;7273;48.902;9.410;2023-03-26T02:53:01;97340.47;;;7.84;68.07
9187;BME280;7273;48.902;9.410;2023-03-26T02:55:26;97345.59;;;7.86;68.20
9187;BME280;7273;48.902;9.410;2023-03-26T02:57:52;97356.91;;;7.83;68.03
9187;BME280;7273;48.902;9.410;2023-03-26T03:00:17;97346.41;;;7.81;67.90
9187;BME280;7273;48.902;9.410;2023-03-26T03:02:46;97334.81;;;7.86;69.74
9187;BME280;7273;48.902;9.410;2023-03-26T03:05:12;97334.53;;;7.87;68.58
9187;BME280;7273;48.902;9.410;2023-03-26T03:07:38;97330.22;;;7.91;68.06
9187;BME280;7273;48.902;9.410;2023-03-26T03:10:05;97326.72;;;7.91;67.73
9187;BME280;7273;48.902;9.410;2023-03-26T03:12:33;97317.59;;;7.92;68.25
9187;BME280;7273;48.902;9.410;2023-03-26T03:14:59;97328.84;;;7.94;67.58
9187;BME280;7273;48.902;9.410;2023-03-26T03:17:24;97317.84;;;7.90;67.95
9187;BME280;7273;48.902;9.410;2023-03-26T03:19:51;97309.72;;;7.95;67.63
9187;BME280;7273;48.902;9.410;2023-03-26T03:22:16;97314.06;;;7.91;67.74
9187;BME280;7273;48.902;9.410;2023-03-26T03:24:41;97313.22;;;7.96;68.12
9187;BME280;7273;48.902;9.410;2023-03-26T03:27:09;97302.72;;;7.99;67.66
9187;BME280;7273;48.902;9.410;2023-03-26T03:29:35;97299.22;;;7.99;67.54
9187;BME280;7273;48.902;9.410;2023-03-26T03:32:00;97291.41;;;7.97;68.36
9187;BME280;7273;48.902;9.410;2023-03-26T03:34:26;97291.38;;;8.02;67.74
9187;BME280;7273;48.902;9.410;2023-03-26T03:36:51;97286.25;;;8.06;67.88
9187;BME280;7273;48.902;9.410;2023-03-26T03:39:17;97285.16;;;8.07;68.13
9187;BME280;7273;48.902;9.410;2023-03-26T03:41:42;97273.03;;;8.09;67.13
9187;BME280;7273;48.902;9.410;2023-03-26T03:44:07;97270.88;;;8.11;67.69
9187;BME280;7273;48.902;9.410;2023-03-26T03:46:33;97267.63;;;8.14;67.65
9187;BME280;7273;48.902;9.410;2023-03-26T03:48:58;97271.34;;;8.18;67.78
9187;BME280;7273;48.902;9.410;2023-03-26T03:51:24;97261.91;;;8.21;67.25
9187;BME280;7273;48.902;9.410;2023-03-26T03:53:49;97257.34;;;8.22;67.59
9187;BME280;7273;48.902;9.410;2023-03-26T03:56:15;97247.09;;;8.24;67.26
9187;BME280;7273;48.902;9.410;2023-03-26T03:58:44;97253.84;;;8.26;67.68
9187;BME280;7273;48.902;9.410;2023-03-26T04:01:11;97250.31;;;8.26;67.40
9187;BME280;7273;48.902;9.410;2023-03-26T04:03:38;97237.09;;;8.29;67.62
9187;BME280;7273;48.902;9.410;2023-03-26T04:06:05;97240.31;;;8.31;67.70
9187;BME280;7273;48.902;9.410;2023-03-26T04:08:32;97231.16;;;8.32;67.11
9187;BME280;7273;48.902;9.410;2023-03-26T04:10:57;97236.78;;;8.36;67.31
9187;BME280;7273;48.902;9.410;2023-03-26T04:13:23;97234.63;;;8.38;67.10
9187;BME280;7273;48.902;9.410;2023-03-26T04:15:48;97238.91;;;8.39;67.52
9187;BME280;7273;48.902;9.410;2023-03-26T04:18:14;97235.94;;;8.40;67.25
9187;BME280;7273;48.902;9.410;2023-03-26T04:20:41;97234.03;;;8.41;67.65
9187;BME280;7273;48.902;9.410;2023-03-26T04:23:15;97226.78;;;8.41;67.70
9187;BME280;7273;48.902;9.410;2023-03-26T04:25:48;97220.88;;;8.39;67.63
9187;BME280;7273;48.902;9.410;2023-03-26T04:28:27;97205.72;;;8.43;67.55
9187;BME280;7273;48.902;9.410;2023-03-26T04:30:55;97199.84;;;8.41;67.93
9187;BME280;7273;48.902;9.410;2023-03-26T04:33:25;97201.16;;;8.44;68.16
9187;BME280;7273;48.902;9.410;2023-03-26T04:35:52;97196.56;;;8.44;68.14
9187;BME280;7273;48.902;9.410;2023-03-26T04:38:18;97181.19;;;8.45;68.12
9187;BME280;7273;48.902;9.410;2023-03-26T04:40:44;97177.72;;;8.44;67.70
9187;BME280;7273;48.902;9.410;2023-03-26T04:43:14;97170.38;;;8.50;67.99
9187;BME280;7273;48.902;9.410;2023-03-26T04:45:42;97169.28;;;8.51;67.79
9187;BME280;7273;48.902;9.410;2023-03-26T04:48:10;97170.66;;;8.48;68.00
9187;BME280;7273;48.902;9.410;2023-03-26T04:50:40;97162.56;;;8.48;68.20
9187;BME280;7273;48.902;9.410;2023-03-26T04:53:19;97163.66;;;8.47;68.14
9187;BME280;7273;48.902;9.410;2023-03-26T04:58:14;97154.31;;;8.40;68.22
9187;BME280;7273;48.902;9.410;2023-03-26T05:00:40;97146.50;;;8.38;68.14
9187;BME280;7273;48.902;9.410;2023-03-26T05:03:10;97135.78;;;8.33;68.67
9187;BME280;7273;48.902;9.410;2023-03-26T05:05:36;97131.25;;;8.29;68.61
9187;BME280;7273;48.902;9.410;2023-03-26T05:08:02;97122.44;;;8.23;68.62
9187;BME280;7273;48.902;9.410;2023-03-26T05:10:27;97118.91;;;8.23;68.47
9187;BME280;7273;48.902;9.410;2023-03-26T05:12:53;97131.31;;;8.18;69.23
9187;BME280;7273;48.902;9.410;2023-03-26T05:15:18;97125.16;;;8.18;68.93
9187;BME280;7273;48.902;9.410;2023-03-26T05:17:44;97122.94;;;8.20;68.93
9187;BME280;7273;48.902;9.410;2023-03-26T05:20:20;97135.34;;;8.21;69.11
9187;BME280;7273;48.902;9.410;2023-03-26T05:22:49;97125.19;;;8.13;69.13
9187;BME280;7273;48.902;9.410;2023-03-26T05:25:15;97122.75;;;8.16;69.38
9187;BME280;7273;48.902;9.410;2023-03-26T05:27:41;97125.72;;;8.15;69.32
9187;BME280;7273;48.902;9.410;2023-03-26T05:30:07;97125.19;;;8.13;69.54
9187;BME280;7273;48.902;9.410;2023-03-26T05:32:34;97122.75;;;8.16;69.06
9187;BME280;7273;48.902;9.410;2023-03-26T05:35:00;97124.03;;;8.19;68.96
9187;BME280;7273;48.902;9.410;2023-03-26T05:37:27;97119.75;;;8.23;69.20
9187;BME280;7273;48.902;9.410;2023-03-26T05:39:55;97115.38;;;8.27;68.48
9187;BME280;7273;48.902;9.410;2023-03-26T05:42:21;97106.22;;;8.28;68.87
9187;BME280;7273;48.902;9.410;2023-03-26T05:44:46;97099.16;;;8.32;68.33
9187;BME280;7273;48.902;9.410;2023-03-26T05:47:12;97089.50;;;8.31;68.74
9187;BME280;7273;48.902;9.410;2023-03-26T05:49:37;97097.53;;;8.36;68.91
9187;BME280;7273;48.902;9.410;2023-03-26T05:52:02;97090.75;;;8.39;69.07
9187;BME280;7273;48.902;9.410;2023-03-26T05:54:28;97085.31;;;8.44;68.53
9187;BME280;7273;48.902;9.410;2023-03-26T05:56:53;97082.31;;;8.45;68.81
9187;BME280;7273;48.902;9.410;2023-03-26T05:59:20;97081.97;;;8.52;68.84
9187;BME280;7273;48.902;9.410;2023-03-26T06:01:45;97073.59;;;8.53;68.01
9187;BME280;7273;48.902;9.410;2023-03-26T06:04:12;97072.47;;;8.59;68.11
9187;BME280;7273;48.902;9.410;2023-03-26T06:06:37;97060.06;;;8.58;68.16
9187;BME280;7273;48.902;9.410;2023-03-26T06:09:03;97050.56;;;8.66;67.80
9187;BME280;7273;48.902;9.410;2023-03-26T06:11:30;97049.97;;;8.69;68.29
9187;BME280;7273;48.902;9.410;2023-03-26T06:13:56;97042.69;;;8.69;68.09
9187;BME280;7273;48.902;9.410;2023-03-26T06:16:21;97041.59;;;8.70;67.64
9187;BME280;7273;48.902;9.410;2023-03-26T06:18:47;97035.06;;;8.76;68.28
9187;BME280;7273;48.902;9.410;2023-03-26T06:21:12;97035.84;;;8.77;68.04
9187;BME280;7273;48.902;9.410;2023-03-26T06:23:37;97045.03;;;8.76;67.79
9187;BME280;7273;48.902;9.410;2023-03-26T06:26:03;97045.91;;;8.71;68.22
9187;BME280;7273;48.902;9.410;2023-03-26T06:28:28;97041.72;;;8.60;68.27
9187;BME280;7273;48.902;9.410;2023-03-26T06:30:58;97043.91;;;8.58;68.26
9187;BME280;7273;48.902;9.410;2023-03-26T06:33:23;97024.31;;;8.53;68.59
9187;BME280;7273;48.902;9.410;2023-03-26T06:35:49;97010.03;;;8.52;68.30
9187;BME280;7273;48.902;9.410;2023-03-26T06:38:14;97001.66;;;8.54;68.11
9187;BME280;7273;48.902;9.410;2023-03-26T06:40:40;96993.22;;;8.60;67.89
9187;BME280;7273;48.902;9.410;2023-03-26T06:43:05;96987.84;;;8.60;68.50
9187;BME280;7273;48.902;9.410;2023-03-26T06:45:31;96983.03;;;8.57;67.85
9187;BME280;7273;48.902;9.410;2023-03-26T06:47:57;96978.66;;;8.61;68.12
9187;BME280;7273;48.902;9.410;2023-03-26T06:50:22;96976.69;;;8.67;68.42
9187;BME280;7273;48.902;9.410;2023-03-26T06:52:48;96973.25;;;8.61;67.96
9187;BME280;7273;48.902;9.410;2023-03-26T06:55:15;96962.94;;;8.68;68.00
9187;BME280;7273;48.902;9.410;2023-03-26T06:57:40;96965.63;;;8.68;67.81
9187;BME280;7273;48.902;9.410;2023-03-26T07:00:10;96965.91;;;8.67;67.99
9187;BME280;7273;48.902;9.410;2023-03-26T07:02:35;96962.06;;;8.73;67.75
9187;BME280;7273;48.902;9.410;2023-03-26T07:05:01;96964.97;;;8.76;68.00
9187;BME280;7273;48.902;9.410;2023-03-26T07:07:26;96954.41;;;8.80;67.81
9187;BME280;7273;48.902;9.410;2023-03-26T07:09:52;96960.63;;;8.80;67.91
9187;BME280;7273;48.902;9.410;2023-03-26T07:12:17;96957.03;;;8.85;68.07
9187;BME280;7273;48.902;9.410;2023-03-26T07:14:43;96958.31;;;8.87;68.07
9187;BME280;7273;48.902;9.410;2023-03-26T07:17:08;96947.25;;;8.89;67.78
9187;BME280;7273;48.902;9.410;2023-03-26T07:19:33;96946.69;;;8.92;67.56
9187;BME280;7273;48.902;9.410;2023-03-26T07:21:59;96942.88;;;8.93;67.65
9187;BME280;7273;48.902;9.410;2023-03-26T07:24:25;96934.81;;;8.93;68.03
9187;BME280;7273;48.902;9.410;2023-03-26T07:29:42;96930.28;;;8.88;68.06
9187;BME280;7273;48.902;9.410;2023-03-26T07:45:45;96890.06;;;8.92;67.80
9187;BME280;7273;48.902;9.410;2023-03-26T07:48:20;96886.66;;;8.86;67.41
9187;BME280;7273;48.902;9.410;2023-03-26T07:50:46;96888.97;;;8.93;67.83
9187;BME280;7273;48.902;9.410;2023-03-26T07:53:13;96894.16;;;8.89;67.95
9187;BME280;7273;48.902;9.410;2023-03-26T07:55:49;96898.16;;;8.92;67.74
9187;BME280;7273;48.902;9.410;2023-03-26T08:06:43;96893.72;;;8.82;67.98
9187;BME280;7273;48.902;9.410;2023-03-26T08:09:19;96890.16;;;8.68;68.67
9187;BME280;7273;48.902;9.410;2023-03-26T08:14:19;96888.56;;;8.67;69.76
9187;BME280;7273;48.902;9.410;2023-03-26T08:19:49;96879.63;;;8.53;69.14
9187;BME280;7273;48.902;9.410;2023-03-26T08:22:18;96881.22;;;8.54;69.57
9187;BME280;7273;48.902;9.410;2023-03-26T08:25:24;96890.41;;;8.53;70.02
9187;BME280;7273;48.902;9.410;2023-03-26T08:30:38;96864.56;;;8.52;69.66
9187;BME280;7273;48.902;9.410;2023-03-26T08:33:19;96859.25;;;8.47;69.64
9187;BME280;7273;48.902;9.410;2023-03-26T08:35:46;96866.50;;;8.47;70.08
9187;BME280;7273;48.902;9.410;2023-03-26T08:38:14;96863.13;;;8.41;70.10
9187;BME280;7273;48.902;9.410;2023-03-26T08:55:20;96828.72;;;8.33;70.93
9187;BME280;7273;48.902;9.410;2023-03-26T09:11:48;96830.94;;;8.31;71.24
9187;BME280;7273;48.902;9.410;2023-03-26T09:28:20;96842.84;;;8.44;70.74
9187;BME280;7273;48.902;9.410;2023-03-26T09:39:08;96811.50;;;8.34;71.98
9187;BME280;7273;48.902;9.410;2023-03-26T09:41:41;96808.28;;;8.32;71.64
9187;BME280;7273;48.902;9.410;2023-03-26T09:58:07;96796.41;;;8.97;72.87
9187;BME280;7273;48.902;9.410;2023-03-26T10:36:30;96779.31;;;10.76;72.03
9187;BME280;7273;48.902;9.410;2023-03-26T10:52:39;96795.16;;;11.61;69.17
9187;BME280;7273;48.902;9.410;2023-03-26T10:58:25;96778.34;;;11.73;67.55
9187;BME280;7273;48.902;9.410;2023-03-26T11:01:02;96789.63;;;11.66;67.30
9187;BME280;7273;48.902;9.410;2023-03-26T11:03:50;96790.91;;;11.69;67.75
9187;BME280;7273;48.902;9.410;2023-03-26T11:19:27;96778.81;;;13.87;63.71
9187;BME280;7273;48.902;9.410;2023-03-26T11:22:20;96774.28;;;14.20;62.43
9187;BME280;7273;48.902;9.410;2023-03-26T11:30:20;96764.44;;;16.18;54.47
9187;BME280;7273;48.902;9.410;2023-03-26T11:32:54;96759.53;;;16.63;55.54
9187;BME280;7273;48.902;9.410;2023-03-26T11:35:37;96750.44;;;17.14;55.86
9187;BME280;7273;48.902;9.410;2023-03-26T11:38:18;67080.47;;;-141.06;100.00
9187;BME280;7273;48.902;9.410;2023-03-26T11:40:49;67080.47;;;-141.06;100.00
9187;BME280;7273;48.902;9.410;2023-03-26T11:43:21;67080.47;;;-141.06;100.00
9187;BME280;7273;48.902;9.410;2023-03-26T11:45:49;67080.47;;;-141.06;100.00
9187;BME280;7273;48.902;9.410;2023-03-26T11:48:27;67080.47;;;-141.06;100.00
9187;BME280;7273;48.902;9.410;2023-03-26T11:51:19;67080.47;;;-141.06;100.00
9187;BME280;7273;48.902;9.410;2023-03-26T11:53:46;67080.47;;;-141.06;100.00
9187;BME280;7273;48.902;9.410;2023-03-26T12:04:16;67080.47;;;-141.06;100.00
9187;BME280;7273;48.902;9.410;2023-03-26T12:07:06;67080.47;;;-141.06;100.00
9187;BME280;7273;48.902;9.410;2023-03-26T12:09:32;67080.47;;;-141.06;100.00
9187;BME280;7273;48.902;9.410;2023-03-26T12:12:00;67080.47;;;-141.06;100.00
9187;BME280;7273;48.902;9.410;2023-03-26T12:14:32;67080.47;;;-141.06;100.00
9187;BME280;7273;48.902;9.410;2023-03-26T12:19:26;67080.47;;;-141.06;100.00
9187;BME280;7273;48.902;9.410;2023-03-26T12:21:57;67080.47;;;-141.06;100.00
9187;BME280;7273;48.902;9.410;2023-03-26T12:29:51;67080.47;;;-141.06;100.00
9187;BME280;7273;48.902;9.410;2023-03-26T12:32:19;67080.47;;;-141.06;100.00
9187;BME280;7273;48.902;9.410;2023-03-26T12:34:46;67080.47;;;-141.06;100.00
9187;BME280;7273;48.902;9.410;2023-03-26T12:37:32;67080.47;;;-141.06;100.00
9187;BME280;7273;48.902;9.410;2023-03-26T12:43:20;67080.47;;;-141.06;100.00
9187;BME280;7273;48.902;9.410;2023-03-26T12:45:49;67080.47;;;-141.06;100.00
9187;BME280;7273;48.902;9.410;2023-03-26T12:48:17;67080.47;;;-141.06;100.00
9187;BME280;7273;48.902;9.410;2023-03-26T12:53:32;67080.47;;;-141.06;100.00
9187;BME280;7273;48.902;9.410;2023-03-26T13:06:50;67080.47;;;-141.06;100.00
9187;BME280;7273;48.902;9.410;2023-03-26T13:09:30;67080.47;;;-141.06;100.00
9187;BME280;7273;48.902;9.410;2023-03-26T13:15:07;67080.47;;;-141.06;100.00
9187;BME280;7273;48.902;9.410;2023-03-26T13:17:54;67080.47;;;-141.06;100.00
9187;BME280;7273;48.902;9.410;2023-03-26T13:29:41;67080.47;;;-141.06;100.00
9187;BME280;7273;48.902;9.410;2023-03-26T13:32:22;67080.47;;;-141.06;100.00
9187;BME280;7273;48.902;9.410;2023-03-26T13:35:04;67080.47;;;-141.06;100.00
9187;BME280;7273;48.902;9.410;2023-03-26T13:37:51;67080.47;;;-141.06;100.00
9187;BME280;7273;48.902;9.410;2023-03-26T13:40:23;67080.47;;;-141.06;100.00
9187;BME280;7273;48.902;9.410;2023-03-26T13:45:53;67080.47;;;-141.06;100.00
9187;BME280;7273;48.902;9.410;2023-03-26T13:48:27;67080.47;;;-141.06;100.00
9187;BME280;7273;48.902;9.410;2023-03-26T13:53:40;67080.47;;;-141.06;100.00
9187;BME280;7273;48.902;9.410;2023-03-26T13:56:10;67080.47;;;-141.06;100.00
9187;BME280;7273;48.902;9.410;2023-03-26T13:58:46;67080.47;;;-141.06;100.00
9187;BME280;7273;48.902;9.410;2023-03-26T14:01:20;67080.47;;;-141.06;100.00
9187;BME280;7273;48.902;9.410;2023-03-26T14:06:44;67080.47;;;-141.06;100.00
9187;BME280;7273;48.902;9.410;2023-03-26T14:17:47;67080.47;;;-141.06;100.00
9187;BME280;7273;48.902;9.410;2023-03-26T14:31:09;67080.47;;;-141.06;100.00
9187;BME280;7273;48.902;9.410;2023-03-26T14:42:23;67080.47;;;-141.06;100.00
9187;BME280;7273;48.902;9.410;2023-03-26T14:53:47;67080.47;;;-141.06;100.00
9187;BME280;7273;48.902;9.410;2023-03-26T14:56:37;67080.47;;;-141.06;100.00
9187;BME280;7273;48.902;9.410;2023-03-26T15:07:22;67080.47;;;-141.06;100.00
9187;BME280;7273;48.902;9.410;2023-03-26T15:27:33;67080.47;;;-141.06;100.00
9187;BME280;7273;48.902;9.410;2023-03-26T15:41:31;67080.47;;;-141.06;100.00
9187;BME280;7273;48.902;9.410;2023-03-26T15:46:30;67080.47;;;-141.06;100.00
9187;BME280;7273;48.902;9.410;2023-03-26T15:51:57;67080.47;;;-141.06;100.00
9187;BME280;7273;48.902;9.410;2023-03-26T15:57:40;67080.47;;;-141.06;100.00
9187;BME280;7273;48.902;9.410;2023-03-26T16:03:05;67080.47;;;-141.06;100.00
9187;BME280;7273;48.902;9.410;2023-03-26T16:15:11;67080.47;;;-141.06;100.00
9187;BME280;7273;48.902;9.410;2023-03-26T16:20:43;67080.47;;;-141.06;100.00
9187;BME280;7273;48.902;9.410;2023-03-26T16:23:29;67080.47;;;-141.06;100.00
9187;BME280;7273;48.902;9.410;2023-03-26T16:28:34;67080.47;;;-141.06;100.00
9187;BME280;7273;48.902;9.410;2023-03-26T16:33:52;67080.47;;;-141.06;100.00
9187;BME280;7273;48.902;9.410;2023-03-26T16:41:26;67080.47;;;-141.06;100.00
9187;BME280;7273;48.902;9.410;2023-03-26T16:46:41;67080.47;;;-141.06;100.00
9187;BME280;7273;48.902;9.410;2023-03-26T16:49:17;67080.47;;;-141.06;100.00
9187;BME280;7273;48.902;9.410;2023-03-26T16:57:42;67080.47;;;-141.06;100.00
9187;BME280;7273;48.902;9.410;2023-03-26T17:07:59;67080.47;;;-141.06;100.00
9187;BME280;7273;48.902;9.410;2023-03-26T17:11:03;67080.47;;;-141.06;100.00
9187;BME280;7273;48.902;9.410;2023-03-26T17:13:35;67080.47;;;-141.06;100.00
9187;BME280;7273;48.902;9.410;2023-03-26T17:24:50;67080.47;;;-141.06;100.00
9187;BME280;7273;48.902;9.410;2023-03-26T17:30:28;67080.47;;;-141.06;100.00
9187;BME280;7273;48.902;9.410;2023-03-26T17:33:05;67080.47;;;-141.06;100.00
9187;BME280;7273;48.902;9.410;2023-03-26T17:35:44;67080.47;;;-141.06;100.00
9187;BME280;7273;48.902;9.410;2023-03-26T17:40:53;67080.47;;;-141.06;100.00
9187;BME280;7273;48.902;9.410;2023-03-26T17:43:47;67080.47;;;-141.06;100.00
9187;BME280;7273;48.902;9.410;2023-03-26T17:56:45;67080.47;;;-141.06;100.00
9187;BME280;7273;48.902;9.410;2023-03-26T17:59:18;67080.47;;;-141.06;100.00
9187;BME280;7273;48.902;9.410;2023-03-26T18:01:50;67080.47;;;-141.06;100.00
9187;BME280;7273;48.902;9.410;2023-03-26T18:04:24;67080.47;;;-141.06;100.00
9187;BME280;7273;48.902;9.410;2023-03-26T18:09:50;67080.47;;;-141.06;100.00
9187;BME280;7273;48.902;9.410;2023-03-26T18:20:35;67080.47;;;-141.06;100.00
9187;BME280;7273;48.902;9.410;2023-03-26T18:23:08;67080.47;;;-141.06;100.00
9187;BME280;7273;48.902;9.410;2023-03-26T18:25:34;67080.47;;;-141.06;100.00
9187;BME280;7273;48.902;9.410;2023-03-26T18:28:00;67080.47;;;-141.06;100.00
9187;BME280;7273;48.902;9.410;2023-03-26T18:30:28;67080.47;;;-141.06;100.00
9187;BME280;7273;48.902;9.410;2023-03-26T18:33:12;67080.47;;;-141.06;100.00
9187;BME280;7273;48.902;9.410;2023-03-26T18:35:41;67080.47;;;-141.06;100.00
9187;BME280;7273;48.902;9.410;2023-03-26T18:38:13;67080.47;;;-141.06;100.00
9187;BME280;7273;48.902;9.410;2023-03-26T18:40:41;67080.47;;;-141.06;100.00
9187;BME280;7273;48.902;9.410;2023-03-26T18:43:19;67080.47;;;-141.06;100.00
9187;BME280;7273;48.902;9.410;2023-03-26T18:45:48;67080.47;;;-141.06;100.00
9187;BME280;7273;48.902;9.410;2023-03-26T18:48:19;67080.47;;;-141.06;100.00
9187;BME280;7273;48.902;9.410;2023-03-26T18:50:50;67080.47;;;-141.06;100.00
9187;BME280;7273;48.902;9.410;2023-03-26T18:53:20;67080.47;;;-141.06;100.00
9187;BME280;7273;48.902;9.410;2023-03-26T18:55:48;67080.47;;;-141.06;100.00
9187;BME280;7273;48.902;9.410;2023-03-26T18:58:32;67080.47;;;-141.06;100.00
9187;BME280;7273;48.902;9.410;2023-03-26T19:01:00;67080.47;;;-141.06;100.00
9187;BME280;7273;48.902;9.410;2023-03-26T19:03:29;67080.47;;;-141.06;100.00
9187;BME280;7273;48.902;9.410;2023-03-26T19:05:56;67080.47;;;-141.06;100.00
9187;BME280;7273;48.902;9.410;2023-03-26T19:08:23;67080.47;;;-141.06;100.00
9187;BME280;7273;48.902;9.410;2023-03-26T19:10:51;67080.47;;;-141.06;100.00
9187;BME280;7273;48.902;9.410;2023-03-26T19:13:20;67080.47;;;-141.06;100.00
9187;BME280;7273;48.902;9.410;2023-03-26T19:15:48;67080.47;;;-141.06;100.00
9187;BME280;7273;48.902;9.410;2023-03-26T19:18:19;67080.47;;;-141.06;100.00
9187;BME280;7273;48.902;9.410;2023-03-26T19:20:53;67080.47;;;-141.06;100.00
9187;BME280;7273;48.902;9.410;2023-03-26T19:23:21;67080.47;;;-141.06;100.00
9187;BME280;7273;48.902;9.410;2023-03-26T19:25:51;67080.47;;;-141.06;100.00
9187;BME280;7273;48.902;9.410;2023-03-26T19:28:24;67080.47;;;-141.06;100.00
9187;BME280;7273;48.902;9.410;2023-03-26T19:30:55;67080.47;;;-141.06;100.00
9187;BME280;7273;48.902;9.410;2023-03-26T19:33:22;67080.47;;;-141.06;100.00
9187;BME280;7273;48.902;9.410;2023-03-26T19:36:00;67080.47;;;-141.06;100.00
9187;BME280;7273;48.902;9.410;2023-03-26T19:38:37;67080.47;;;-141.06;100.00
9187;BME280;7273;48.902;9.410;2023-03-26T19:41:17;67080.47;;;-141.06;100.00
9187;BME280;7273;48.902;9.410;2023-03-26T19:43:47;67080.47;;;-141.06;100.00
9187;BME280;7273;48.902;9.410;2023-03-26T19:46:14;67080.47;;;-141.06;100.00
9187;BME280;7273;48.902;9.410;2023-03-26T19:48:39;67080.47;;;-141.06;100.00
9187;BME280;7273;48.902;9.410;2023-03-26T19:51:05;67080.47;;;-141.06;100.00
9187;BME280;7273;48.902;9.410;2023-03-26T19:53:35;67080.47;;;-141.06;100.00
9187;BME280;7273;48.902;9.410;2023-03-26T19:58:32;67080.47;;;-141.06;100.00
9187;BME280;7273;48.902;9.410;2023-03-26T20:00:59;67080.47;;;-141.06;100.00
9187;BME280;7273;48.902;9.410;2023-03-26T20:03:46;67080.47;;;-141.06;100.00
9187;BME280;7273;48.902;9.410;2023-03-26T20:06:14;67080.47;;;-141.06;100.00
9187;BME280;7273;48.902;9.410;2023-03-26T20:08:39;67080.47;;;-141.06;100.00
9187;BME280;7273;48.902;9.410;2023-03-26T20:11:14;67080.47;;;-141.06;100.00